sensor_id;sensor_type;location;lat;lon;timestamp;P1;durP1;ratioP1;P2;durP2;ratioP2
35606;SDS011;21729;58.392;15.656;2022-08-03T00:00:20;0.95;;;0.60;;
35606;SDS011;21729;58.392;15.656;2022-08-03T00:02:48;1.50;;;0.80;;
35606;SDS011;21729;58.392;15.656;2022-08-03T00:05:15;2.10;;;0.70;;
35606;SDS011;21729;58.392;15.656;2022-08-03T00:07:42;2.50;;;0.77;;
35606;SDS011;21729;58.392;15.656;2022-08-03T00:10:09;0.60;;;0.60;;
35606;SDS011;21729;58.392;15.656;2022-08-03T00:12:38;1.20;;;0.68;;
35606;SDS011;21729;58.392;15.656;2022-08-03T00:15:05;2.10;;;0.55;;
35606;SDS011;21729;58.392;15.656;2022-08-03T00:17:34;1.17;;;0.70;;
35606;SDS011;21729;58.392;15.656;2022-08-03T00:20:01;2.67;;;0.80;;
35606;SDS011;21729;58.392;15.656;2022-08-03T00:22:29;0.80;;;0.65;;
35606;SDS011;21729;58.392;15.656;2022-08-03T00:24:56;1.75;;;0.88;;
35606;SDS011;21729;58.392;15.656;2022-08-03T00:27:23;1.70;;;0.68;;
35606;SDS011;21729;58.392;15.656;2022-08-03T00:29:50;0.90;;;0.70;;
35606;SDS011;21729;58.392;15.656;2022-08-03T00:32:17;0.68;;;0.65;;
35606;SDS011;21729;58.392;15.656;2022-08-03T00:34:45;2.38;;;0.80;;
35606;SDS011;21729;58.392;15.656;2022-08-03T00:37:12;2.60;;;0.93;;
35606;SDS011;21729;58.392;15.656;2022-08-03T00:39:40;0.80;;;0.70;;
35606;SDS011;21729;58.392;15.656;2022-08-03T00:42:07;1.80;;;0.80;;
35606;SDS011;21729;58.392;15.656;2022-08-03T00:44:38;2.20;;;0.70;;
35606;SDS011;21729;58.392;15.656;2022-08-03T00:47:06;1.20;;;0.88;;
35606;SDS011;21729;58.392;15.656;2022-08-03T00:49:34;0.70;;;0.70;;
35606;SDS011;21729;58.392;15.656;2022-08-03T00:52:03;2.10;;;0.93;;
35606;SDS011;21729;58.392;15.656;2022-08-03T00:54:31;3.00;;;0.90;;
35606;SDS011;21729;58.392;15.656;2022-08-03T00:56:59;1.80;;;1.00;;
35606;SDS011;21729;58.392;15.656;2022-08-03T00:59:27;2.70;;;1.07;;
35606;SDS011;21729;58.392;15.656;2022-08-03T01:01:55;2.35;;;1.00;;
35606;SDS011;21729;58.392;15.656;2022-08-03T01:04:22;1.65;;;1.00;;
35606;SDS011;21729;58.392;15.656;2022-08-03T01:06:51;0.98;;;0.90;;
35606;SDS011;21729;58.392;15.656;2022-08-03T01:09:28;3.20;;;1.10;;
35606;SDS011;21729;58.392;15.656;2022-08-03T01:12:06;2.30;;;0.90;;
35606;SDS011;21729;58.392;15.656;2022-08-03T01:14:40;1.55;;;0.93;;
35606;SDS011;21729;58.392;15.656;2022-08-03T01:17:17;2.70;;;1.10;;
35606;SDS011;21729;58.392;15.656;2022-08-03T01:19:49;1.02;;;0.90;;
35606;SDS011;21729;58.392;15.656;2022-08-03T01:22:36;2.30;;;1.00;;
35606;SDS011;21729;58.392;15.656;2022-08-03T01:25:22;1.05;;;0.90;;
35606;SDS011;21729;58.392;15.656;2022-08-03T01:28:01;2.20;;;1.20;;
35606;SDS011;21729;58.392;15.656;2022-08-03T01:30:46;1.20;;;1.07;;
35606;SDS011;21729;58.392;15.656;2022-08-03T01:33:16;3.47;;;1.23;;
35606;SDS011;21729;58.392;15.656;2022-08-03T01:35:49;3.73;;;1.20;;
35606;SDS011;21729;58.392;15.656;2022-08-03T01:38:20;2.77;;;1.37;;
35606;SDS011;21729;58.392;15.656;2022-08-03T01:40:50;3.30;;;1.20;;
35606;SDS011;21729;58.392;15.656;2022-08-03T01:43:20;1.20;;;0.98;;
35606;SDS011;21729;58.392;15.656;2022-08-03T01:45:53;2.03;;;1.20;;
35606;SDS011;21729;58.392;15.656;2022-08-03T01:48:22;1.40;;;0.93;;
35606;SDS011;21729;58.392;15.656;2022-08-03T01:50:50;1.70;;;1.17;;
35606;SDS011;21729;58.392;15.656;2022-08-03T01:53:19;1.77;;;1.00;;
35606;SDS011;21729;58.392;15.656;2022-08-03T01:55:48;2.88;;;1.30;;
35606;SDS011;21729;58.392;15.656;2022-08-03T01:58:20;3.75;;;1.40;;
35606;SDS011;21729;58.392;15.656;2022-08-03T02:00:49;1.30;;;1.20;;
35606;SDS011;21729;58.392;15.656;2022-08-03T02:03:19;1.83;;;1.10;;
35606;SDS011;21729;58.392;15.656;2022-08-03T02:05:47;4.45;;;1.40;;
35606;SDS011;21729;58.392;15.656;2022-08-03T02:08:15;2.85;;;1.33;;
35606;SDS011;21729;58.392;15.656;2022-08-03T02:10:44;2.05;;;1.33;;
35606;SDS011;21729;58.392;15.656;2022-08-03T02:13:12;4.03;;;1.10;;
35606;SDS011;21729;58.392;15.656;2022-08-03T02:15:41;4.43;;;1.20;;
35606;SDS011;21729;58.392;15.656;2022-08-03T02:18:09;1.88;;;1.20;;
35606;SDS011;21729;58.392;15.656;2022-08-03T02:20:38;4.72;;;1.40;;
35606;SDS011;21729;58.392;15.656;2022-08-03T02:23:08;2.80;;;1.23;;
35606;SDS011;21729;58.392;15.656;2022-08-03T02:25:37;1.80;;;1.30;;
35606;SDS011;21729;58.392;15.656;2022-08-03T02:28:10;3.60;;;1.25;;
35606;SDS011;21729;58.392;15.656;2022-08-03T02:30:42;3.00;;;1.35;;
35606;SDS011;21729;58.392;15.656;2022-08-03T02:33:13;2.38;;;1.40;;
35606;SDS011;21729;58.392;15.656;2022-08-03T02:35:46;2.40;;;1.20;;
35606;SDS011;21729;58.392;15.656;2022-08-03T02:38:17;3.35;;;1.38;;
35606;SDS011;21729;58.392;15.656;2022-08-03T02:40:46;3.30;;;1.55;;
35606;SDS011;21729;58.392;15.656;2022-08-03T02:43:17;3.30;;;1.40;;
35606;SDS011;21729;58.392;15.656;2022-08-03T02:45:48;1.48;;;1.30;;
35606;SDS011;21729;58.392;15.656;2022-08-03T02:48:17;2.60;;;1.38;;
35606;SDS011;21729;58.392;15.656;2022-08-03T02:50:49;4.82;;;1.20;;
35606;SDS011;21729;58.392;15.656;2022-08-03T02:53:18;3.33;;;1.67;;
35606;SDS011;21729;58.392;15.656;2022-08-03T02:55:48;4.97;;;1.55;;
35606;SDS011;21729;58.392;15.656;2022-08-03T02:58:16;2.42;;;1.55;;
35606;SDS011;21729;58.392;15.656;2022-08-03T03:00:45;3.47;;;1.65;;
35606;SDS011;21729;58.392;15.656;2022-08-03T03:03:14;2.47;;;1.40;;
35606;SDS011;21729;58.392;15.656;2022-08-03T03:05:41;4.75;;;1.60;;
35606;SDS011;21729;58.392;15.656;2022-08-03T03:08:12;2.05;;;1.65;;
35606;SDS011;21729;58.392;15.656;2022-08-03T03:10:40;3.80;;;1.70;;
35606;SDS011;21729;58.392;15.656;2022-08-03T03:13:08;3.00;;;1.60;;
35606;SDS011;21729;58.392;15.656;2022-08-03T03:15:37;2.05;;;1.70;;
35606;SDS011;21729;58.392;15.656;2022-08-03T03:18:04;3.00;;;1.92;;
35606;SDS011;21729;58.392;15.656;2022-08-03T03:20:34;2.22;;;2.03;;
35606;SDS011;21729;58.392;15.656;2022-08-03T03:23:05;2.60;;;1.87;;
35606;SDS011;21729;58.392;15.656;2022-08-03T03:25:35;2.63;;;1.80;;
35606;SDS011;21729;58.392;15.656;2022-08-03T03:28:03;2.67;;;1.80;;
35606;SDS011;21729;58.392;15.656;2022-08-03T03:30:31;2.80;;;1.77;;
35606;SDS011;21729;58.392;15.656;2022-08-03T03:32:59;3.40;;;2.10;;
35606;SDS011;21729;58.392;15.656;2022-08-03T03:35:27;1.90;;;1.80;;
35606;SDS011;21729;58.392;15.656;2022-08-03T03:37:54;2.05;;;1.63;;
35606;SDS011;21729;58.392;15.656;2022-08-03T03:40:22;3.85;;;1.70;;
35606;SDS011;21729;58.392;15.656;2022-08-03T03:42:50;3.17;;;1.95;;
35606;SDS011;21729;58.392;15.656;2022-08-03T03:45:18;2.70;;;1.63;;
35606;SDS011;21729;58.392;15.656;2022-08-03T03:47:46;3.40;;;1.60;;
35606;SDS011;21729;58.392;15.656;2022-08-03T03:50:13;4.00;;;1.80;;
35606;SDS011;21729;58.392;15.656;2022-08-03T03:52:43;3.33;;;1.88;;
35606;SDS011;21729;58.392;15.656;2022-08-03T03:55:14;2.40;;;1.80;;
35606;SDS011;21729;58.392;15.656;2022-08-03T03:57:42;3.28;;;1.70;;
35606;SDS011;21729;58.392;15.656;2022-08-03T04:00:12;3.40;;;1.42;;
35606;SDS011;21729;58.392;15.656;2022-08-03T04:02:40;2.25;;;1.33;;
35606;SDS011;21729;58.392;15.656;2022-08-03T04:05:07;2.38;;;1.58;;
35606;SDS011;21729;58.392;15.656;2022-08-03T04:08:08;3.30;;;1.70;;
35606;SDS011;21729;58.392;15.656;2022-08-03T04:11:01;2.13;;;1.60;;
35606;SDS011;21729;58.392;15.656;2022-08-03T04:13:35;1.90;;;1.48;;
35606;SDS011;21729;58.392;15.656;2022-08-03T04:16:06;1.30;;;1.20;;
35606;SDS011;21729;58.392;15.656;2022-08-03T04:18:36;3.07;;;1.50;;
35606;SDS011;21729;58.392;15.656;2022-08-03T04:21:07;2.70;;;1.40;;
35606;SDS011;21729;58.392;15.656;2022-08-03T04:23:39;3.30;;;1.50;;
35606;SDS011;21729;58.392;15.656;2022-08-03T04:26:11;3.05;;;1.50;;
35606;SDS011;21729;58.392;15.656;2022-08-03T04:28:42;3.00;;;1.80;;
35606;SDS011;21729;58.392;15.656;2022-08-03T04:31:12;2.45;;;1.33;;
35606;SDS011;21729;58.392;15.656;2022-08-03T04:33:42;2.15;;;1.42;;
35606;SDS011;21729;58.392;15.656;2022-08-03T04:36:11;2.78;;;2.10;;
35606;SDS011;21729;58.392;15.656;2022-08-03T04:38:43;1.63;;;1.47;;
35606;SDS011;21729;58.392;15.656;2022-08-03T04:41:19;1.55;;;1.45;;
35606;SDS011;21729;58.392;15.656;2022-08-03T04:43:50;2.10;;;1.48;;
35606;SDS011;21729;58.392;15.656;2022-08-03T04:46:22;2.55;;;1.55;;
35606;SDS011;21729;58.392;15.656;2022-08-03T04:48:54;2.35;;;1.65;;
35606;SDS011;21729;58.392;15.656;2022-08-03T04:51:21;3.35;;;1.45;;
35606;SDS011;21729;58.392;15.656;2022-08-03T04:53:50;2.10;;;1.30;;
35606;SDS011;21729;58.392;15.656;2022-08-03T04:56:17;1.83;;;1.58;;
35606;SDS011;21729;58.392;15.656;2022-08-03T04:58:44;1.45;;;1.27;;
35606;SDS011;21729;58.392;15.656;2022-08-03T05:01:11;3.50;;;1.50;;
35606;SDS011;21729;58.392;15.656;2022-08-03T05:03:40;2.90;;;1.60;;
35606;SDS011;21729;58.392;15.656;2022-08-03T05:06:07;1.98;;;1.50;;
35606;SDS011;21729;58.392;15.656;2022-08-03T05:08:34;2.50;;;1.50;;
35606;SDS011;21729;58.392;15.656;2022-08-03T05:11:01;2.03;;;1.20;;
35606;SDS011;21729;58.392;15.656;2022-08-03T05:13:28;2.95;;;1.50;;
35606;SDS011;21729;58.392;15.656;2022-08-03T05:15:55;2.17;;;1.42;;
35606;SDS011;21729;58.392;15.656;2022-08-03T05:18:23;2.42;;;1.30;;
35606;SDS011;21729;58.392;15.656;2022-08-03T05:20:51;1.65;;;1.23;;
35606;SDS011;21729;58.392;15.656;2022-08-03T05:23:18;2.10;;;1.33;;
35606;SDS011;21729;58.392;15.656;2022-08-03T05:25:45;1.73;;;1.23;;
35606;SDS011;21729;58.392;15.656;2022-08-03T05:28:13;1.83;;;1.30;;
35606;SDS011;21729;58.392;15.656;2022-08-03T05:30:40;2.42;;;1.45;;
35606;SDS011;21729;58.392;15.656;2022-08-03T05:33:07;2.40;;;1.40;;
35606;SDS011;21729;58.392;15.656;2022-08-03T05:35:34;2.30;;;1.30;;
35606;SDS011;21729;58.392;15.656;2022-08-03T05:38:04;1.63;;;1.20;;
35606;SDS011;21729;58.392;15.656;2022-08-03T05:40:32;3.42;;;1.40;;
35606;SDS011;21729;58.392;15.656;2022-08-03T05:42:59;2.17;;;1.00;;
35606;SDS011;21729;58.392;15.656;2022-08-03T05:45:26;3.17;;;1.60;;
35606;SDS011;21729;58.392;15.656;2022-08-03T05:47:53;3.63;;;1.20;;
35606;SDS011;21729;58.392;15.656;2022-08-03T05:50:20;1.38;;;1.20;;
35606;SDS011;21729;58.392;15.656;2022-08-03T05:52:48;1.73;;;1.20;;
35606;SDS011;21729;58.392;15.656;2022-08-03T05:55:17;1.63;;;1.10;;
35606;SDS011;21729;58.392;15.656;2022-08-03T05:57:44;1.33;;;1.02;;
35606;SDS011;21729;58.392;15.656;2022-08-03T06:00:12;1.30;;;1.13;;
35606;SDS011;21729;58.392;15.656;2022-08-03T06:02:41;1.83;;;1.23;;
35606;SDS011;21729;58.392;15.656;2022-08-03T06:05:08;1.45;;;1.20;;
35606;SDS011;21729;58.392;15.656;2022-08-03T06:07:36;3.13;;;1.25;;
35606;SDS011;21729;58.392;15.656;2022-08-03T06:10:03;3.67;;;1.13;;
35606;SDS011;21729;58.392;15.656;2022-08-03T06:12:33;3.20;;;1.13;;
35606;SDS011;21729;58.392;15.656;2022-08-03T06:15:00;1.83;;;1.13;;
35606;SDS011;21729;58.392;15.656;2022-08-03T06:17:28;2.40;;;1.02;;
35606;SDS011;21729;58.392;15.656;2022-08-03T06:19:56;2.10;;;1.15;;
35606;SDS011;21729;58.392;15.656;2022-08-03T06:22:23;1.20;;;1.00;;
35606;SDS011;21729;58.392;15.656;2022-08-03T06:24:50;2.15;;;1.00;;
35606;SDS011;21729;58.392;15.656;2022-08-03T06:27:17;0.97;;;0.97;;
35606;SDS011;21729;58.392;15.656;2022-08-03T06:29:46;0.82;;;0.82;;
35606;SDS011;21729;58.392;15.656;2022-08-03T06:32:13;2.47;;;1.00;;
35606;SDS011;21729;58.392;15.656;2022-08-03T06:34:40;1.48;;;0.88;;
35606;SDS011;21729;58.392;15.656;2022-08-03T06:37:07;1.50;;;0.90;;
35606;SDS011;21729;58.392;15.656;2022-08-03T06:39:36;1.00;;;0.77;;
35606;SDS011;21729;58.392;15.656;2022-08-03T06:42:03;1.50;;;0.70;;
35606;SDS011;21729;58.392;15.656;2022-08-03T06:44:30;1.77;;;1.13;;
35606;SDS011;21729;58.392;15.656;2022-08-03T06:46:59;1.67;;;1.20;;
35606;SDS011;21729;58.392;15.656;2022-08-03T06:49:26;1.60;;;1.50;;
35606;SDS011;21729;58.392;15.656;2022-08-03T06:51:53;1.50;;;1.40;;
35606;SDS011;21729;58.392;15.656;2022-08-03T06:54:21;1.40;;;1.30;;
35606;SDS011;21729;58.392;15.656;2022-08-03T06:56:49;2.60;;;1.33;;
35606;SDS011;21729;58.392;15.656;2022-08-03T06:59:16;1.60;;;1.50;;
35606;SDS011;21729;58.392;15.656;2022-08-03T07:01:43;1.83;;;1.35;;
35606;SDS011;21729;58.392;15.656;2022-08-03T07:04:12;1.60;;;0.93;;
35606;SDS011;21729;58.392;15.656;2022-08-03T07:06:39;1.38;;;1.10;;
35606;SDS011;21729;58.392;15.656;2022-08-03T07:09:06;0.88;;;0.85;;
35606;SDS011;21729;58.392;15.656;2022-08-03T07:11:33;1.88;;;0.90;;
35606;SDS011;21729;58.392;15.656;2022-08-03T07:14:00;2.05;;;1.00;;
35606;SDS011;21729;58.392;15.656;2022-08-03T07:16:28;1.08;;;0.80;;
35606;SDS011;21729;58.392;15.656;2022-08-03T07:18:55;1.60;;;1.00;;
35606;SDS011;21729;58.392;15.656;2022-08-03T07:21:24;2.47;;;0.90;;
35606;SDS011;21729;58.392;15.656;2022-08-03T07:23:51;1.65;;;0.88;;
35606;SDS011;21729;58.392;15.656;2022-08-03T07:26:18;1.50;;;0.85;;
35606;SDS011;21729;58.392;15.656;2022-08-03T07:28:45;1.00;;;0.90;;
35606;SDS011;21729;58.392;15.656;2022-08-03T07:31:12;2.95;;;0.95;;
35606;SDS011;21729;58.392;15.656;2022-08-03T07:33:39;1.10;;;1.00;;
35606;SDS011;21729;58.392;15.656;2022-08-03T07:36:06;0.82;;;0.82;;
35606;SDS011;21729;58.392;15.656;2022-08-03T07:38:35;1.50;;;0.90;;
35606;SDS011;21729;58.392;15.656;2022-08-03T07:41:02;1.45;;;0.90;;
35606;SDS011;21729;58.392;15.656;2022-08-03T07:43:29;1.15;;;1.05;;
35606;SDS011;21729;58.392;15.656;2022-08-03T07:45:56;1.17;;;1.02;;
35606;SDS011;21729;58.392;15.656;2022-08-03T07:48:23;0.98;;;0.98;;
35606;SDS011;21729;58.392;15.656;2022-08-03T07:50:50;2.67;;;1.10;;
35606;SDS011;21729;58.392;15.656;2022-08-03T07:53:18;1.08;;;1.00;;
35606;SDS011;21729;58.392;15.656;2022-08-03T07:55:46;1.10;;;0.87;;
35606;SDS011;21729;58.392;15.656;2022-08-03T07:58:13;2.15;;;1.20;;
35606;SDS011;21729;58.392;15.656;2022-08-03T08:00:42;1.40;;;1.30;;
35606;SDS011;21729;58.392;15.656;2022-08-03T08:03:09;2.22;;;1.20;;
35606;SDS011;21729;58.392;15.656;2022-08-03T08:05:37;1.70;;;1.10;;
35606;SDS011;21729;58.392;15.656;2022-08-03T08:08:05;1.70;;;1.00;;
35606;SDS011;21729;58.392;15.656;2022-08-03T08:10:32;3.22;;;1.30;;
35606;SDS011;21729;58.392;15.656;2022-08-03T08:13:01;1.30;;;1.13;;
35606;SDS011;21729;58.392;15.656;2022-08-03T08:15:28;2.90;;;1.08;;
35606;SDS011;21729;58.392;15.656;2022-08-03T08:17:56;1.17;;;1.05;;
35606;SDS011;21729;58.392;15.656;2022-08-03T08:20:25;1.85;;;1.20;;
35606;SDS011;21729;58.392;15.656;2022-08-03T08:22:55;1.30;;;1.10;;
35606;SDS011;21729;58.392;15.656;2022-08-03T08:25:23;1.70;;;1.55;;
35606;SDS011;21729;58.392;15.656;2022-08-03T08:27:50;1.60;;;1.20;;
35606;SDS011;21729;58.392;15.656;2022-08-03T08:30:20;2.60;;;1.20;;
35606;SDS011;21729;58.392;15.656;2022-08-03T08:32:48;1.25;;;1.15;;
35606;SDS011;21729;58.392;15.656;2022-08-03T08:35:16;1.42;;;1.10;;
35606;SDS011;21729;58.392;15.656;2022-08-03T08:37:44;1.42;;;1.15;;
35606;SDS011;21729;58.392;15.656;2022-08-03T08:40:12;2.70;;;1.25;;
35606;SDS011;21729;58.392;15.656;2022-08-03T08:42:40;1.98;;;1.38;;
35606;SDS011;21729;58.392;15.656;2022-08-03T08:45:08;1.80;;;1.20;;
35606;SDS011;21729;58.392;15.656;2022-08-03T08:47:38;1.45;;;1.17;;
35606;SDS011;21729;58.392;15.656;2022-08-03T08:50:09;1.10;;;1.00;;
35606;SDS011;21729;58.392;15.656;2022-08-03T08:52:38;1.25;;;1.10;;
35606;SDS011;21729;58.392;15.656;2022-08-03T08:55:06;1.20;;;0.90;;
35606;SDS011;21729;58.392;15.656;2022-08-03T08:57:35;1.53;;;0.90;;
35606;SDS011;21729;58.392;15.656;2022-08-03T09:00:06;1.48;;;1.27;;
35606;SDS011;21729;58.392;15.656;2022-08-03T09:02:39;2.40;;;1.25;;
35606;SDS011;21729;58.392;15.656;2022-08-03T09:05:08;1.90;;;1.30;;
35606;SDS011;21729;58.392;15.656;2022-08-03T09:07:37;2.08;;;1.20;;
35606;SDS011;21729;58.392;15.656;2022-08-03T09:10:05;3.20;;;1.20;;
35606;SDS011;21729;58.392;15.656;2022-08-03T09:12:35;2.38;;;1.00;;
35606;SDS011;21729;58.392;15.656;2022-08-03T09:17:52;1.13;;;1.00;;
35606;SDS011;21729;58.392;15.656;2022-08-03T09:20:20;1.90;;;1.20;;
35606;SDS011;21729;58.392;15.656;2022-08-03T09:22:52;3.28;;;1.38;;
35606;SDS011;21729;58.392;15.656;2022-08-03T09:25:28;1.90;;;1.10;;
35606;SDS011;21729;58.392;15.656;2022-08-03T09:28:03;1.50;;;1.30;;
35606;SDS011;21729;58.392;15.656;2022-08-03T09:30:32;2.03;;;1.13;;
35606;SDS011;21729;58.392;15.656;2022-08-03T09:33:02;1.15;;;1.05;;
35606;SDS011;21729;58.392;15.656;2022-08-03T09:35:31;3.08;;;1.48;;
35606;SDS011;21729;58.392;15.656;2022-08-03T09:38:11;2.10;;;1.15;;
35606;SDS011;21729;58.392;15.656;2022-08-03T09:40:40;2.10;;;1.30;;
35606;SDS011;21729;58.392;15.656;2022-08-03T09:43:08;3.22;;;1.65;;
35606;SDS011;21729;58.392;15.656;2022-08-03T09:45:36;2.97;;;1.48;;
35606;SDS011;21729;58.392;15.656;2022-08-03T09:48:20;3.10;;;1.60;;
35606;SDS011;21729;58.392;15.656;2022-08-03T09:50:48;1.70;;;1.57;;
35606;SDS011;21729;58.392;15.656;2022-08-03T09:53:16;4.40;;;1.50;;
35606;SDS011;21729;58.392;15.656;2022-08-03T09:55:51;2.75;;;1.35;;
35606;SDS011;21729;58.392;15.656;2022-08-03T09:58:19;3.00;;;1.60;;
35606;SDS011;21729;58.392;15.656;2022-08-03T10:00:51;2.83;;;1.58;;
35606;SDS011;21729;58.392;15.656;2022-08-03T10:03:24;2.90;;;1.85;;
35606;SDS011;21729;58.392;15.656;2022-08-03T10:05:53;3.17;;;1.48;;
35606;SDS011;21729;58.392;15.656;2022-08-03T10:08:20;5.33;;;1.90;;
35606;SDS011;21729;58.392;15.656;2022-08-03T10:10:49;2.08;;;1.40;;
35606;SDS011;21729;58.392;15.656;2022-08-03T10:13:18;5.40;;;2.00;;
35606;SDS011;21729;58.392;15.656;2022-08-03T10:15:47;3.10;;;1.75;;
35606;SDS011;21729;58.392;15.656;2022-08-03T10:18:14;3.85;;;1.80;;
35606;SDS011;21729;58.392;15.656;2022-08-03T10:20:44;3.63;;;1.57;;
35606;SDS011;21729;58.392;15.656;2022-08-03T10:23:15;3.00;;;1.83;;
35606;SDS011;21729;58.392;15.656;2022-08-03T10:25:45;4.53;;;1.73;;
35606;SDS011;21729;58.392;15.656;2022-08-03T10:28:14;2.67;;;1.70;;
35606;SDS011;21729;58.392;15.656;2022-08-03T10:30:47;5.00;;;1.90;;
35606;SDS011;21729;58.392;15.656;2022-08-03T10:33:17;2.53;;;1.48;;
35606;SDS011;21729;58.392;15.656;2022-08-03T10:35:49;3.47;;;1.83;;
35606;SDS011;21729;58.392;15.656;2022-08-03T10:38:18;4.28;;;1.60;;
35606;SDS011;21729;58.392;15.656;2022-08-03T10:40:49;3.20;;;1.75;;
35606;SDS011;21729;58.392;15.656;2022-08-03T10:43:20;3.97;;;1.80;;
35606;SDS011;21729;58.392;15.656;2022-08-03T10:45:51;4.68;;;1.70;;
35606;SDS011;21729;58.392;15.656;2022-08-03T10:48:19;5.40;;;1.70;;
35606;SDS011;21729;58.392;15.656;2022-08-03T10:50:49;2.78;;;1.60;;
35606;SDS011;21729;58.392;15.656;2022-08-03T10:53:16;5.05;;;1.80;;
35606;SDS011;21729;58.392;15.656;2022-08-03T10:55:59;3.60;;;1.80;;
35606;SDS011;21729;58.392;15.656;2022-08-03T10:58:50;3.47;;;1.67;;
35606;SDS011;21729;58.392;15.656;2022-08-03T11:01:18;3.05;;;1.50;;
35606;SDS011;21729;58.392;15.656;2022-08-03T11:04:15;3.30;;;1.67;;
35606;SDS011;21729;58.392;15.656;2022-08-03T11:06:45;4.10;;;1.80;;
35606;SDS011;21729;58.392;15.656;2022-08-03T11:09:14;3.13;;;1.65;;
35606;SDS011;21729;58.392;15.656;2022-08-03T11:11:42;3.83;;;1.77;;
35606;SDS011;21729;58.392;15.656;2022-08-03T11:14:11;2.92;;;1.38;;
35606;SDS011;21729;58.392;15.656;2022-08-03T11:16:40;2.97;;;1.45;;
35606;SDS011;21729;58.392;15.656;2022-08-03T11:19:10;2.90;;;1.50;;
35606;SDS011;21729;58.392;15.656;2022-08-03T11:21:58;1.98;;;1.30;;
35606;SDS011;21729;58.392;15.656;2022-08-03T11:27:24;3.05;;;1.40;;
35606;SDS011;21729;58.392;15.656;2022-08-03T11:29:53;2.90;;;1.70;;
35606;SDS011;21729;58.392;15.656;2022-08-03T11:35:24;2.95;;;1.42;;
35606;SDS011;21729;58.392;15.656;2022-08-03T11:38:05;3.92;;;1.50;;
35606;SDS011;21729;58.392;15.656;2022-08-03T11:40:34;4.13;;;1.65;;
35606;SDS011;21729;58.392;15.656;2022-08-03T11:43:03;2.78;;;1.33;;
35606;SDS011;21729;58.392;15.656;2022-08-03T11:45:30;3.33;;;1.42;;
35606;SDS011;21729;58.392;15.656;2022-08-03T11:47:58;2.70;;;1.20;;
35606;SDS011;21729;58.392;15.656;2022-08-03T11:50:37;2.10;;;1.40;;
35606;SDS011;21729;58.392;15.656;2022-08-03T11:53:06;3.67;;;1.20;;
35606;SDS011;21729;58.392;15.656;2022-08-03T11:55:38;3.70;;;1.50;;
35606;SDS011;21729;58.392;15.656;2022-08-03T11:58:11;2.10;;;1.30;;
35606;SDS011;21729;58.392;15.656;2022-08-03T12:00:41;4.13;;;1.45;;
35606;SDS011;21729;58.392;15.656;2022-08-03T12:03:09;1.27;;;1.17;;
35606;SDS011;21729;58.392;15.656;2022-08-03T12:05:41;3.50;;;1.50;;
35606;SDS011;21729;58.392;15.656;2022-08-03T12:08:12;2.03;;;1.23;;
35606;SDS011;21729;58.392;15.656;2022-08-03T12:10:45;2.25;;;1.30;;
35606;SDS011;21729;58.392;15.656;2022-08-03T12:13:16;3.30;;;1.40;;
35606;SDS011;21729;58.392;15.656;2022-08-03T12:15:49;2.20;;;1.30;;
35606;SDS011;21729;58.392;15.656;2022-08-03T12:18:17;4.05;;;1.30;;
35606;SDS011;21729;58.392;15.656;2022-08-03T12:20:48;5.17;;;1.50;;
35606;SDS011;21729;58.392;15.656;2022-08-03T12:23:18;2.50;;;1.30;;
35606;SDS011;21729;58.392;15.656;2022-08-03T12:25:45;3.42;;;1.48;;
35606;SDS011;21729;58.392;15.656;2022-08-03T12:28:14;2.23;;;1.40;;
35606;SDS011;21729;58.392;15.656;2022-08-03T12:30:43;2.38;;;1.30;;
35606;SDS011;21729;58.392;15.656;2022-08-03T12:33:16;2.47;;;1.10;;
35606;SDS011;21729;58.392;15.656;2022-08-03T12:35:45;2.08;;;1.20;;
35606;SDS011;21729;58.392;15.656;2022-08-03T12:38:19;3.30;;;1.40;;
35606;SDS011;21729;58.392;15.656;2022-08-03T12:40:54;3.20;;;1.40;;
35606;SDS011;21729;58.392;15.656;2022-08-03T12:43:23;3.92;;;1.30;;
35606;SDS011;21729;58.392;15.656;2022-08-03T12:45:56;3.53;;;1.35;;
35606;SDS011;21729;58.392;15.656;2022-08-03T12:48:32;4.53;;;1.20;;
35606;SDS011;21729;58.392;15.656;2022-08-03T12:51:06;1.83;;;1.10;;
35606;SDS011;21729;58.392;15.656;2022-08-03T12:53:35;3.30;;;1.30;;
35606;SDS011;21729;58.392;15.656;2022-08-03T12:56:03;4.68;;;1.40;;
35606;SDS011;21729;58.392;15.656;2022-08-03T12:58:31;1.70;;;1.20;;
35606;SDS011;21729;58.392;15.656;2022-08-03T13:01:00;3.95;;;1.35;;
35606;SDS011;21729;58.392;15.656;2022-08-03T13:03:27;4.30;;;1.67;;
35606;SDS011;21729;58.392;15.656;2022-08-03T13:05:54;2.88;;;1.45;;
35606;SDS011;21729;58.392;15.656;2022-08-03T13:08:23;2.73;;;1.60;;
35606;SDS011;21729;58.392;15.656;2022-08-03T13:10:52;10.37;;;1.90;;
35606;SDS011;21729;58.392;15.656;2022-08-03T13:16:05;3.30;;;1.58;;
35606;SDS011;21729;58.392;15.656;2022-08-03T13:18:32;3.28;;;1.70;;
35606;SDS011;21729;58.392;15.656;2022-08-03T13:20:59;3.95;;;1.70;;
35606;SDS011;21729;58.392;15.656;2022-08-03T13:23:26;3.40;;;1.65;;
35606;SDS011;21729;58.392;15.656;2022-08-03T13:25:54;2.27;;;1.53;;
35606;SDS011;21729;58.392;15.656;2022-08-03T13:28:21;2.92;;;1.65;;
35606;SDS011;21729;58.392;15.656;2022-08-03T13:30:49;7.10;;;1.73;;
35606;SDS011;21729;58.392;15.656;2022-08-03T13:33:16;5.90;;;1.70;;
35606;SDS011;21729;58.392;15.656;2022-08-03T13:35:43;2.78;;;1.40;;
35606;SDS011;21729;58.392;15.656;2022-08-03T13:38:10;4.35;;;1.50;;
35606;SDS011;21729;58.392;15.656;2022-08-03T13:40:37;4.60;;;1.77;;
35606;SDS011;21729;58.392;15.656;2022-08-03T13:43:06;4.43;;;1.73;;
35606;SDS011;21729;58.392;15.656;2022-08-03T13:45:33;3.30;;;1.80;;
35606;SDS011;21729;58.392;15.656;2022-08-03T13:48:00;3.97;;;1.60;;
35606;SDS011;21729;58.392;15.656;2022-08-03T13:50:27;4.78;;;1.52;;
35606;SDS011;21729;58.392;15.656;2022-08-03T13:52:55;4.65;;;1.70;;
35606;SDS011;21729;58.392;15.656;2022-08-03T13:55:23;6.13;;;1.63;;
35606;SDS011;21729;58.392;15.656;2022-08-03T13:57:50;3.55;;;1.60;;
35606;SDS011;21729;58.392;15.656;2022-08-03T14:00:18;2.80;;;1.58;;
35606;SDS011;21729;58.392;15.656;2022-08-03T14:02:49;3.57;;;1.67;;
35606;SDS011;21729;58.392;15.656;2022-08-03T14:05:16;3.10;;;1.60;;
35606;SDS011;21729;58.392;15.656;2022-08-03T14:07:44;2.78;;;1.50;;
35606;SDS011;21729;58.392;15.656;2022-08-03T14:10:13;1.70;;;1.60;;
35606;SDS011;21729;58.392;15.656;2022-08-03T14:12:41;4.07;;;1.48;;
35606;SDS011;21729;58.392;15.656;2022-08-03T14:15:09;2.65;;;1.30;;
35606;SDS011;21729;58.392;15.656;2022-08-03T14:17:38;1.50;;;1.40;;
35606;SDS011;21729;58.392;15.656;2022-08-03T14:20:07;3.55;;;1.40;;
35606;SDS011;21729;58.392;15.656;2022-08-03T14:22:36;4.57;;;1.60;;
35606;SDS011;21729;58.392;15.656;2022-08-03T14:25:04;2.42;;;1.40;;
35606;SDS011;21729;58.392;15.656;2022-08-03T14:27:32;2.58;;;1.55;;
35606;SDS011;21729;58.392;15.656;2022-08-03T14:29:59;2.97;;;1.30;;
35606;SDS011;21729;58.392;15.656;2022-08-03T14:32:26;2.55;;;1.50;;
35606;SDS011;21729;58.392;15.656;2022-08-03T14:34:54;3.88;;;1.63;;
35606;SDS011;21729;58.392;15.656;2022-08-03T14:37:21;3.40;;;1.30;;
35606;SDS011;21729;58.392;15.656;2022-08-03T14:39:49;2.35;;;1.50;;
35606;SDS011;21729;58.392;15.656;2022-08-03T14:42:16;1.77;;;1.50;;
35606;SDS011;21729;58.392;15.656;2022-08-03T14:44:44;5.97;;;1.67;;
35606;SDS011;21729;58.392;15.656;2022-08-03T14:47:11;3.35;;;1.50;;
35606;SDS011;21729;58.392;15.656;2022-08-03T14:49:38;3.72;;;1.60;;
35606;SDS011;21729;58.392;15.656;2022-08-03T14:52:07;2.25;;;1.55;;
35606;SDS011;21729;58.392;15.656;2022-08-03T14:54:34;3.33;;;1.83;;
35606;SDS011;21729;58.392;15.656;2022-08-03T14:57:02;3.20;;;1.63;;